createdAt,value
2023-03-07T00:01:00.026Z,3.52
2023-03-07T00:02:01.470Z,3.47
2023-03-07T00:03:03.267Z,3.47
2023-03-07T00:04:04.807Z,3.43
2023-03-07T00:05:07.102Z,3.37
2023-03-07T00:06:10.361Z,3.44
2023-03-07T00:07:11.984Z,3.50
2023-03-07T00:08:13.492Z,3.54
2023-03-07T00:09:14.939Z,3.47
2023-03-07T00:10:17.053Z,3.46
2023-03-07T00:11:19.301Z,3.31
2023-03-07T00:12:22.294Z,3.40
2023-03-07T00:13:23.828Z,3.38
2023-03-07T00:14:25.158Z,3.38
2023-03-07T00:15:26.616Z,3.41
2023-03-07T00:16:28.216Z,3.40
2023-03-07T00:17:29.731Z,3.47
2023-03-07T00:18:31.953Z,3.53
2023-03-07T00:19:33.530Z,3.45
2023-03-07T00:20:35.059Z,3.29
2023-03-07T00:21:36.842Z,3.37
2023-03-07T00:22:38.282Z,3.53
2023-03-07T00:23:42.168Z,3.66
2023-03-07T00:24:43.599Z,3.60
2023-03-07T00:25:45.053Z,3.56
2023-03-07T00:26:46.646Z,3.64
2023-03-07T00:27:48.142Z,3.67
2023-03-07T00:28:51.440Z,3.72
2023-03-07T00:29:52.910Z,3.66
2023-03-07T00:30:55.178Z,3.62
2023-03-07T00:31:56.717Z,3.71
2023-03-07T00:32:58.947Z,3.66
2023-03-07T00:34:00.663Z,3.50
2023-03-07T00:35:02.334Z,3.51
2023-03-07T00:36:10.493Z,3.60
2023-03-07T00:37:11.923Z,3.68
2023-03-07T00:38:13.297Z,3.73
2023-03-07T00:39:15.357Z,3.76
2023-03-07T00:40:17.271Z,3.74
2023-03-07T00:41:21.154Z,3.79
2023-03-07T00:42:22.538Z,3.81
2023-03-07T00:43:24.267Z,3.64
2023-03-07T00:44:27.137Z,3.55
2023-03-07T00:45:28.630Z,3.51
2023-03-07T00:46:30.072Z,3.41
2023-03-07T00:47:31.469Z,3.42
2023-03-07T00:48:34.418Z,3.49
2023-03-07T00:49:35.924Z,3.44
2023-03-07T00:50:37.400Z,3.45
2023-03-07T00:51:38.806Z,3.50
2023-03-07T00:52:40.255Z,3.55
2023-03-07T00:53:42.097Z,3.63
2023-03-07T00:54:43.580Z,3.60
2023-03-07T00:55:59.533Z,3.41
2023-03-07T00:57:01.033Z,3.44
2023-03-07T00:58:02.478Z,3.31
2023-03-07T00:59:04.083Z,3.32
2023-03-07T01:00:06.246Z,3.40
2023-03-07T01:01:09.789Z,3.44
2023-03-07T01:02:11.273Z,3.37
2023-03-07T01:03:12.737Z,3.28
2023-03-07T01:04:14.736Z,3.35
2023-03-07T01:05:16.584Z,3.45
2023-03-07T01:06:20.653Z,3.44
2023-03-07T01:07:22.120Z,3.41
2023-03-07T01:08:24.049Z,3.33
2023-03-07T01:09:25.548Z,3.29
2023-03-07T01:10:28.143Z,3.29
2023-03-07T01:11:31.110Z,3.41
2023-03-07T01:12:32.603Z,3.33
2023-03-07T01:13:35.453Z,3.34
2023-03-07T01:14:36.998Z,3.33
2023-03-07T01:15:39.174Z,3.38
2023-03-07T01:16:40.648Z,3.42
2023-03-07T01:17:42.161Z,3.28
2023-03-07T01:18:45.473Z,3.18
2023-03-07T01:19:46.915Z,3.20
2023-03-07T01:20:48.417Z,3.32
2023-03-07T01:21:50.033Z,3.43
2023-03-07T01:22:51.525Z,3.29
2023-03-07T01:23:53.526Z,3.31
2023-03-07T01:24:54.996Z,3.40
2023-03-07T01:25:56.412Z,3.47
2023-03-07T01:26:57.833Z,3.58
2023-03-07T01:27:59.268Z,3.58
2023-03-07T01:29:03.519Z,3.59
2023-03-07T01:30:07.269Z,3.54
2023-03-07T01:31:08.963Z,3.50
2023-03-07T01:32:10.472Z,3.39
2023-03-07T01:33:12.036Z,3.42
2023-03-07T01:34:13.477Z,3.50
2023-03-07T01:35:15.145Z,3.51
2023-03-07T01:36:19.866Z,3.44
2023-03-07T01:37:21.562Z,3.40
2023-03-07T01:38:23.116Z,3.37
2023-03-07T01:39:24.642Z,3.37
2023-03-07T01:40:26.103Z,3.41
2023-03-07T01:41:32.023Z,3.37
2023-03-07T01:42:33.462Z,3.40
2023-03-07T01:43:36.245Z,3.42
2023-03-07T01:44:59.959Z,3.40
2023-03-07T01:46:19.605Z,3.31
2023-03-07T01:47:21.136Z,3.31
2023-03-07T01:48:22.727Z,3.39
2023-03-07T01:49:34.229Z,3.35
2023-03-07T01:50:35.922Z,3.33
2023-03-07T01:51:40.585Z,3.31
2023-03-07T01:52:45.882Z,3.33
2023-03-07T01:53:50.130Z,3.29
2023-03-07T01:54:56.202Z,3.26
2023-03-07T01:55:57.946Z,3.25
2023-03-07T01:57:02.232Z,3.20
2023-03-07T01:58:07.176Z,3.31
2023-03-07T01:59:08.822Z,3.42
2023-03-07T02:00:18.902Z,3.41
2023-03-07T02:01:21.924Z,3.34
2023-03-07T02:02:24.600Z,3.29
2023-03-07T02:03:35.095Z,3.23
2023-03-07T02:04:44.294Z,3.25
2023-03-07T02:05:56.689Z,3.36
2023-03-07T02:07:00.401Z,3.32
2023-03-07T02:08:03.132Z,3.29
2023-03-07T02:09:12.214Z,3.31
2023-03-07T02:10:16.920Z,3.36
2023-03-07T02:11:18.422Z,3.38
2023-03-07T02:12:22.782Z,3.48
2023-03-07T02:13:24.576Z,3.55
2023-03-07T02:14:26.046Z,3.49
2023-03-07T02:15:27.569Z,3.57
2023-03-07T02:16:29.014Z,3.71
2023-03-07T02:17:31.673Z,3.75
2023-03-07T02:18:38.529Z,3.62
2023-03-07T02:20:05.330Z,3.40
2023-03-07T02:21:23.294Z,3.28
2023-03-07T02:22:25.935Z,3.41
2023-03-07T02:23:53.614Z,3.41
2023-03-07T02:24:55.297Z,3.45
2023-03-07T02:26:05.052Z,3.48
2023-03-07T02:27:06.631Z,3.49
2023-03-07T02:28:12.303Z,3.46
2023-03-07T02:29:14.647Z,3.40
2023-03-07T02:30:16.431Z,3.46
2023-03-07T02:31:18.626Z,3.41
2023-03-07T02:32:20.505Z,3.41
2023-03-07T02:33:24.938Z,3.48
2023-03-07T02:34:29.162Z,3.59
2023-03-07T02:35:30.642Z,3.66
2023-03-07T02:36:35.308Z,3.60
2023-03-07T02:37:38.717Z,3.62
2023-03-07T02:38:42.814Z,3.58
2023-03-07T02:39:45.845Z,3.60
2023-03-07T02:40:47.307Z,3.59
2023-03-07T02:41:49.153Z,3.62
2023-03-07T02:42:54.751Z,3.69
2023-03-07T02:43:56.248Z,3.66
2023-03-07T02:45:00.421Z,3.68
2023-03-07T02:46:01.969Z,3.66
2023-03-07T02:47:03.493Z,3.71
2023-03-07T02:48:05.154Z,3.70
2023-03-07T02:49:06.588Z,3.73
2023-03-07T02:50:09.089Z,3.69
2023-03-07T02:51:12.033Z,3.68
2023-03-07T02:52:13.540Z,3.60
2023-03-07T02:53:15.627Z,3.58
2023-03-07T02:54:17.084Z,3.60
2023-03-07T02:55:18.608Z,3.63
2023-03-07T02:56:20.060Z,3.58
2023-03-07T02:57:21.626Z,3.58
2023-03-07T02:58:23.091Z,3.63
2023-03-07T02:59:24.581Z,3.63
2023-03-07T03:00:26.576Z,3.60
2023-03-07T03:01:28.074Z,3.65
2023-03-07T03:02:29.545Z,3.70
2023-03-07T03:03:31.537Z,3.74
2023-03-07T03:04:33.518Z,3.58
2023-03-07T03:05:35.103Z,3.65
2023-03-07T03:06:36.654Z,3.60
2023-03-07T03:07:38.445Z,3.57
2023-03-07T03:08:39.903Z,3.47
2023-03-07T03:09:41.311Z,3.50
2023-03-07T03:10:42.771Z,3.50
2023-03-07T03:11:44.238Z,3.54
2023-03-07T03:12:45.733Z,3.49
2023-03-07T03:13:47.602Z,3.54
2023-03-07T03:14:49.183Z,3.52
2023-03-07T03:15:56.367Z,3.46
2023-03-07T03:16:57.828Z,3.53
2023-03-07T03:17:59.419Z,3.54
2023-03-07T03:19:01.345Z,3.55
2023-03-07T03:20:07.555Z,3.56
2023-03-07T03:21:10.634Z,3.58
2023-03-07T03:22:12.089Z,3.59
2023-03-07T03:23:13.416Z,3.49
2023-03-07T03:24:14.965Z,3.40
2023-03-07T03:25:16.498Z,3.45
2023-03-07T03:26:19.247Z,3.46
2023-03-07T03:27:20.708Z,3.49
2023-03-07T03:28:22.829Z,3.34
2023-03-07T03:29:25.570Z,3.32
2023-03-07T03:30:32.276Z,3.25
2023-03-07T03:31:34.942Z,3.24
2023-03-07T03:32:40.916Z,3.24
2023-03-07T03:33:44.148Z,3.37
2023-03-07T03:34:46.103Z,3.45
2023-03-07T03:35:47.539Z,3.50
2023-03-07T03:36:49.033Z,3.40
2023-03-07T03:37:50.453Z,3.45
2023-03-07T03:38:56.481Z,3.18
2023-03-07T03:39:57.977Z,3.14
2023-03-07T03:41:03.093Z,3.09
2023-03-07T03:42:06.186Z,3.01
2023-03-07T03:43:07.650Z,3.10
2023-03-07T03:44:10.243Z,3.08
2023-03-07T03:45:12.302Z,3.18
2023-03-07T03:46:14.266Z,3.18
2023-03-07T03:47:15.966Z,3.06
2023-03-07T03:48:17.453Z,2.95
2023-03-07T03:49:19.679Z,2.88
2023-03-07T03:50:21.069Z,2.95
2023-03-07T03:51:24.173Z,3.01
2023-03-07T03:52:25.592Z,2.93
2023-03-07T03:53:27.131Z,2.82
2023-03-07T03:54:28.550Z,2.90
2023-03-07T03:55:30.459Z,2.92
2023-03-07T03:56:31.967Z,2.94
2023-03-07T03:57:33.422Z,2.83
2023-03-07T03:58:35.581Z,2.72
2023-03-07T03:59:37.085Z,2.84
2023-03-07T04:00:38.510Z,2.77
2023-03-07T04:01:40.062Z,2.74
2023-03-07T04:02:41.689Z,2.80
2023-03-07T04:03:46.472Z,2.79
2023-03-07T04:04:47.897Z,2.83
2023-03-07T04:05:49.434Z,2.94
2023-03-07T04:06:51.041Z,2.80
2023-03-07T04:07:52.511Z,2.72
2023-03-07T04:08:55.049Z,2.80
2023-03-07T04:09:56.503Z,2.78
2023-03-07T04:10:58.561Z,2.90
2023-03-07T04:12:00.170Z,2.94
2023-03-07T04:13:01.558Z,3.01
2023-03-07T04:14:03.098Z,2.92
2023-03-07T04:15:07.259Z,2.97
2023-03-07T04:16:08.848Z,3.03
2023-03-07T04:17:10.319Z,3.15
2023-03-07T04:18:11.993Z,3.19
2023-03-07T04:19:13.538Z,3.10
2023-03-07T04:20:17.696Z,3.02
2023-03-07T04:21:20.200Z,3.10
2023-03-07T04:22:21.822Z,3.05
2023-03-07T04:23:24.997Z,3.06
2023-03-07T04:24:26.506Z,3.11
2023-03-07T04:25:27.968Z,3.16
2023-03-07T04:26:29.399Z,3.13
2023-03-07T04:27:31.019Z,3.16
2023-03-07T04:28:44.695Z,3.08
2023-03-07T04:29:46.247Z,2.87
2023-03-07T04:30:49.809Z,2.78
2023-03-07T04:31:51.604Z,2.76
2023-03-07T04:32:53.084Z,2.71
2023-03-07T04:33:56.416Z,2.64
2023-03-07T04:34:57.830Z,2.61
2023-03-07T04:35:59.267Z,2.73
2023-03-07T04:37:00.726Z,2.83
2023-03-07T04:38:02.271Z,2.82
2023-03-07T04:39:04.601Z,2.90
2023-03-07T04:40:06.828Z,2.80
2023-03-07T04:41:12.744Z,2.72
2023-03-07T04:42:14.344Z,2.73
2023-03-07T04:43:15.780Z,2.66
2023-03-07T04:44:17.546Z,2.69
2023-03-07T04:45:19.079Z,2.88
2023-03-07T04:46:20.924Z,2.94
2023-03-07T04:47:22.381Z,2.77
2023-03-07T04:48:23.955Z,2.75
2023-03-07T04:49:25.417Z,2.81
2023-03-07T04:50:26.997Z,2.78
2023-03-07T04:51:28.462Z,2.77
2023-03-07T04:52:30.007Z,2.80
2023-03-07T04:53:31.894Z,2.68
2023-03-07T04:54:33.484Z,2.58
2023-03-07T04:55:34.972Z,2.62
2023-03-07T04:56:36.394Z,2.81
2023-03-07T04:57:38.578Z,2.96
2023-03-07T04:58:41.437Z,3.02
2023-03-07T04:59:42.891Z,3.13
2023-03-07T05:00:45.699Z,3.04
2023-03-07T05:01:47.179Z,3.05
2023-03-07T05:02:49.732Z,3.06
2023-03-07T05:03:51.527Z,2.97
2023-03-07T05:04:53.085Z,2.98
2023-03-07T05:05:55.012Z,2.98
2023-03-07T05:06:56.435Z,2.96
2023-03-07T05:07:58.011Z,3.03
2023-03-07T05:08:59.788Z,3.18
2023-03-07T05:10:01.232Z,3.26
2023-03-07T05:11:03.532Z,3.30
2023-03-07T05:12:05.179Z,3.23
2023-03-07T05:13:06.614Z,3.23
2023-03-07T05:14:08.230Z,3.17
2023-03-07T05:15:10.066Z,3.18
2023-03-07T05:16:11.676Z,3.22
2023-03-07T05:17:13.310Z,3.17
2023-03-07T05:18:14.737Z,3.22
2023-03-07T05:19:16.163Z,3.26
2023-03-07T05:20:17.989Z,3.22
2023-03-07T05:21:19.580Z,3.10
2023-03-07T05:22:21.174Z,3.11
2023-03-07T05:23:22.891Z,3.15
2023-03-07T05:24:24.549Z,3.20
2023-03-07T05:25:26.028Z,3.18
2023-03-07T05:26:27.602Z,3.24
2023-03-07T05:27:29.069Z,3.29
2023-03-07T05:28:30.553Z,3.32
2023-03-07T05:29:32.147Z,3.37
2023-03-07T05:30:34.341Z,3.44
2023-03-07T05:31:36.402Z,3.41
2023-03-07T05:32:37.886Z,3.42
2023-03-07T05:33:42.604Z,3.32
2023-03-07T05:34:46.937Z,3.34
2023-03-07T05:35:48.456Z,3.39
2023-03-07T05:36:49.994Z,3.43
2023-03-07T05:37:52.496Z,3.21
2023-03-07T05:38:56.292Z,3.04
2023-03-07T05:39:57.983Z,2.97
2023-03-07T05:40:59.447Z,2.88
2023-03-07T05:42:01.144Z,2.78
2023-03-07T05:43:03.263Z,2.81
2023-03-07T05:44:05.035Z,2.89
2023-03-07T05:45:07.314Z,2.97
2023-03-07T05:46:08.845Z,3.10
2023-03-07T05:47:10.601Z,3.12
2023-03-07T05:48:12.038Z,3.18
2023-03-07T05:49:13.482Z,3.15
2023-03-07T05:50:15.083Z,3.14
2023-03-07T05:51:16.637Z,3.19
2023-03-07T05:52:18.238Z,3.25
2023-03-07T05:53:19.868Z,3.20
2023-03-07T05:54:21.314Z,3.06
2023-03-07T05:55:22.800Z,3.11
2023-03-07T05:56:24.362Z,3.14
2023-03-07T05:57:25.981Z,3.11
2023-03-07T05:58:27.785Z,3.12
2023-03-07T05:59:29.294Z,3.18
2023-03-07T06:00:30.852Z,3.30
2023-03-07T06:01:32.282Z,3.40
2023-03-07T06:02:33.836Z,3.44
2023-03-07T06:03:35.453Z,3.46
2023-03-07T06:04:37.148Z,3.48
2023-03-07T06:05:39.312Z,3.50
2023-03-07T06:06:40.756Z,3.56
2023-03-07T06:07:42.586Z,3.55
2023-03-07T06:08:46.934Z,3.47
2023-03-07T06:09:48.363Z,3.44
2023-03-07T06:10:54.467Z,3.44
2023-03-07T06:11:55.881Z,3.42
2023-03-07T06:12:57.376Z,3.39
2023-03-07T06:13:58.854Z,3.22
2023-03-07T06:15:00.387Z,3.17
2023-03-07T06:16:01.960Z,3.10
2023-03-07T06:17:04.759Z,3.20
2023-03-07T06:18:06.673Z,3.18
2023-03-07T06:19:08.419Z,3.26
2023-03-07T06:20:10.847Z,3.22
2023-03-07T06:21:16.437Z,3.40
2023-03-07T06:22:18.295Z,3.46
2023-03-07T06:23:19.827Z,3.33
2023-03-07T06:24:21.422Z,3.36
2023-03-07T06:25:23.062Z,3.29
2023-03-07T06:26:24.626Z,3.32
2023-03-07T06:27:26.521Z,3.31
2023-03-07T06:28:29.595Z,3.34
2023-03-07T06:29:32.205Z,3.37
2023-03-07T06:30:33.822Z,3.39
2023-03-07T06:31:35.253Z,3.39
2023-03-07T06:32:37.174Z,3.35
2023-03-07T06:33:39.012Z,3.33
2023-03-07T06:34:40.455Z,3.35
2023-03-07T06:35:43.531Z,3.41
2023-03-07T06:36:45.149Z,3.47
2023-03-07T06:37:47.148Z,3.45
2023-03-07T06:38:48.614Z,3.40
2023-03-07T06:39:50.325Z,3.38
2023-03-07T06:40:56.146Z,3.34
2023-03-07T06:41:57.602Z,3.39
2023-03-07T06:42:59.326Z,3.42
2023-03-07T06:44:00.852Z,3.50
2023-03-07T06:45:02.944Z,3.52
2023-03-07T06:46:04.994Z,3.53
2023-03-07T06:47:06.524Z,3.49
2023-03-07T06:48:08.394Z,3.58
2023-03-07T06:49:09.920Z,3.65
2023-03-07T06:50:11.798Z,3.72
2023-03-07T06:51:13.239Z,3.75
2023-03-07T06:52:14.837Z,3.74
2023-03-07T06:53:16.769Z,3.80
2023-03-07T06:54:18.572Z,3.80
2023-03-07T06:55:20.572Z,3.79
2023-03-07T06:56:22.018Z,3.75
2023-03-07T06:57:23.481Z,3.76
2023-03-07T06:58:25.054Z,3.56
2023-03-07T06:59:26.426Z,3.66
2023-03-07T07:00:28.136Z,3.66
2023-03-07T07:01:29.785Z,3.69
2023-03-07T07:02:32.035Z,3.73
2023-03-07T07:03:33.489Z,3.74
2023-03-07T07:04:34.904Z,3.83
2023-03-07T07:05:36.308Z,3.94
2023-03-07T07:06:37.701Z,3.97
2023-03-07T07:07:39.228Z,3.84
2023-03-07T07:08:40.716Z,3.81
2023-03-07T07:09:42.328Z,3.87
2023-03-07T07:10:43.782Z,3.76
2023-03-07T07:11:45.212Z,3.74
2023-03-07T07:12:46.646Z,3.85
2023-03-07T07:13:48.293Z,3.99
2023-03-07T07:14:50.040Z,4.01
2023-03-07T07:15:51.482Z,4.04
2023-03-07T07:16:53.392Z,3.96
2023-03-07T07:17:54.901Z,3.83
2023-03-07T07:18:56.340Z,3.81
2023-03-07T07:19:57.905Z,3.88
2023-03-07T07:20:59.458Z,3.94
2023-03-07T07:22:00.907Z,3.87
2023-03-07T07:23:02.525Z,3.88
2023-03-07T07:24:04.822Z,3.82
2023-03-07T07:25:06.712Z,3.85
2023-03-07T07:26:08.759Z,3.97
2023-03-07T07:27:12.537Z,3.95
2023-03-07T07:28:14.203Z,3.96
2023-03-07T07:29:16.012Z,3.90
2023-03-07T07:30:17.618Z,3.92
2023-03-07T07:31:19.164Z,3.99
2023-03-07T07:32:21.172Z,4.06
2023-03-07T07:33:22.827Z,4.05
2023-03-07T07:34:24.366Z,4.13
2023-03-07T07:35:25.932Z,4.19
2023-03-07T07:36:28.361Z,4.19
2023-03-07T07:37:29.882Z,4.17
2023-03-07T07:38:31.368Z,4.27
2023-03-07T07:39:33.144Z,4.39
2023-03-07T07:40:34.616Z,4.44
2023-03-07T07:41:36.204Z,4.46
2023-03-07T07:42:38.093Z,4.42
2023-03-07T07:43:39.687Z,4.46
2023-03-07T07:44:41.314Z,4.32
2023-03-07T07:45:43.271Z,4.30
2023-03-07T07:46:44.746Z,4.27
2023-03-07T07:47:50.456Z,4.23
2023-03-07T07:48:51.872Z,4.32
2023-03-07T07:49:53.293Z,4.40
2023-03-07T07:50:54.707Z,4.40
2023-03-07T07:51:56.245Z,4.38
2023-03-07T07:52:57.706Z,4.37
2023-03-07T07:53:59.560Z,4.40
2023-03-07T07:55:01.043Z,4.45
2023-03-07T07:56:02.491Z,4.48
2023-03-07T07:57:04.378Z,4.51
2023-03-07T07:58:05.838Z,4.55
2023-03-07T07:59:07.299Z,4.53
2023-03-07T08:00:12.251Z,4.41
2023-03-07T08:01:15.916Z,4.46
2023-03-07T08:02:17.418Z,4.50
2023-03-07T08:03:18.920Z,4.40
2023-03-07T08:04:21.035Z,4.39
2023-03-07T08:05:22.857Z,4.40
2023-03-07T08:06:25.959Z,4.30
2023-03-07T08:07:27.557Z,4.29
2023-03-07T08:08:29.012Z,4.33
2023-03-07T08:09:30.628Z,4.24
2023-03-07T08:10:32.062Z,4.10
2023-03-07T08:11:33.842Z,4.10
2023-03-07T08:12:35.322Z,4.19
2023-03-07T08:13:36.796Z,4.24
2023-03-07T08:14:39.294Z,4.35
2023-03-07T08:15:41.345Z,4.38
2023-03-07T08:16:45.173Z,4.44
2023-03-07T08:17:46.929Z,4.25
2023-03-07T08:18:50.901Z,4.27
2023-03-07T08:19:52.291Z,4.24
2023-03-07T08:20:53.843Z,4.28
2023-03-07T08:21:55.321Z,4.36
2023-03-07T08:22:56.824Z,4.41
2023-03-07T08:23:58.252Z,4.38
2023-03-07T08:24:59.917Z,4.48
2023-03-07T08:26:05.226Z,4.55
2023-03-07T08:27:07.945Z,4.60
2023-03-07T08:28:09.407Z,4.60
2023-03-07T08:29:11.200Z,4.61
2023-03-07T08:30:13.706Z,4.65
2023-03-07T08:31:21.203Z,4.71
2023-03-07T08:32:23.005Z,4.74
2023-03-07T08:33:24.630Z,4.79
2023-03-07T08:34:26.100Z,4.76
2023-03-07T08:35:28.448Z,4.68
2023-03-07T08:36:30.467Z,4.72
2023-03-07T08:37:31.953Z,4.69
2023-03-07T08:38:33.661Z,4.73
2023-03-07T08:39:35.066Z,4.75
2023-03-07T08:40:36.468Z,4.71
2023-03-07T08:41:38.702Z,4.70
2023-03-07T08:42:40.338Z,4.52
2023-03-07T08:43:41.857Z,4.56
2023-03-07T08:44:43.337Z,4.63
2023-03-07T08:45:44.817Z,4.62
2023-03-07T08:46:46.242Z,4.71
2023-03-07T08:47:47.626Z,4.78
2023-03-07T08:48:49.449Z,4.77
2023-03-07T08:49:50.985Z,4.65
2023-03-07T08:50:54.930Z,4.71
2023-03-07T08:51:56.739Z,4.77
2023-03-07T08:52:58.195Z,4.77
2023-03-07T08:53:59.715Z,4.86
2023-03-07T08:55:01.292Z,4.95
2023-03-07T08:56:10.786Z,4.95
2023-03-07T08:57:12.231Z,4.97
2023-03-07T08:58:14.034Z,5.00
2023-03-07T08:59:15.478Z,5.01
2023-03-07T09:00:21.505Z,5.03
2023-03-07T09:01:23.473Z,5.04
2023-03-07T09:02:24.916Z,5.07
2023-03-07T09:03:26.456Z,5.12
2023-03-07T09:04:27.910Z,5.10
2023-03-07T09:05:30.032Z,5.18
2023-03-07T09:06:31.848Z,5.21
2023-03-07T09:07:33.344Z,5.25
2023-03-07T09:08:34.897Z,5.27
2023-03-07T09:09:36.329Z,5.25
2023-03-07T09:10:37.770Z,5.25
2023-03-07T09:11:39.248Z,5.22
2023-03-07T09:12:40.719Z,5.32
2023-03-07T09:13:51.316Z,5.40
2023-03-07T09:14:55.227Z,5.42
2023-03-07T09:15:56.692Z,5.42
2023-03-07T09:16:58.157Z,5.40
2023-03-07T09:17:59.594Z,5.44
2023-03-07T09:19:01.257Z,5.53
2023-03-07T09:20:03.440Z,5.64
2023-03-07T09:21:06.173Z,5.58
2023-03-07T09:22:07.593Z,5.61
2023-03-07T09:23:10.101Z,5.49
2023-03-07T09:24:11.522Z,5.43
2023-03-07T09:25:13.127Z,5.48
2023-03-07T09:26:15.105Z,5.48
2023-03-07T09:27:16.577Z,5.60
2023-03-07T09:28:18.064Z,5.59
2023-03-07T09:29:19.705Z,5.59
2023-03-07T09:30:22.840Z,5.63
2023-03-07T09:31:25.871Z,5.68
2023-03-07T09:32:27.266Z,5.70
2023-03-07T09:33:28.737Z,5.69
2023-03-07T09:34:30.164Z,5.72
2023-03-07T09:35:31.828Z,5.67
2023-03-07T09:36:33.351Z,5.66
2023-03-07T09:37:35.081Z,5.68
2023-03-07T09:38:37.603Z,5.77
2023-03-07T09:39:39.226Z,5.75
2023-03-07T09:40:41.382Z,5.74
2023-03-07T09:41:57.894Z,5.81
2023-03-07T09:43:19.439Z,5.95
2023-03-07T09:44:26.993Z,5.98
2023-03-07T09:46:06.970Z,6.02
2023-03-07T09:47:17.372Z,5.92
2023-03-07T09:48:56.808Z,5.81
2023-03-07T09:50:00.675Z,5.82
2023-03-07T09:51:11.931Z,5.87
2023-03-07T09:52:19.621Z,5.97
2023-03-07T09:53:39.262Z,6.02
2023-03-07T09:54:45.792Z,6.11
2023-03-07T09:55:51.503Z,6.12
2023-03-07T09:56:57.439Z,6.13
2023-03-07T09:58:06.794Z,6.17
2023-03-07T09:59:40.147Z,6.12
2023-03-07T10:00:43.304Z,5.87
2023-03-07T10:01:46.442Z,5.95
2023-03-07T10:03:21.552Z,5.86
2023-03-07T10:04:33.325Z,5.94
2023-03-07T10:05:45.363Z,5.93
2023-03-07T10:06:54.253Z,6.03
2023-03-07T10:07:56.098Z,6.06
2023-03-07T10:08:59.874Z,6.08
2023-03-07T10:10:06.270Z,6.12
2023-03-07T10:11:26.198Z,6.16
2023-03-07T10:12:42.701Z,6.19
2023-03-07T10:13:53.237Z,6.19
2023-03-07T10:15:06.911Z,6.23
2023-03-07T10:16:36.092Z,6.10
2023-03-07T10:18:04.589Z,6.15
2023-03-07T10:19:35.317Z,6.19
2023-03-07T10:20:57.875Z,6.26
2023-03-07T10:22:29.348Z,6.30
2023-03-07T10:23:51.664Z,6.40
2023-03-07T10:25:11.014Z,6.31
2023-03-07T10:26:14.380Z,6.34
2023-03-07T10:27:16.378Z,6.33
2023-03-07T10:28:26.674Z,6.38
2023-03-07T10:29:36.175Z,6.45
2023-03-07T10:30:37.576Z,6.51
2023-03-07T10:31:44.887Z,6.59
2023-03-07T10:32:51.828Z,6.53
2023-03-07T10:33:54.517Z,6.60
2023-03-07T10:35:22.219Z,6.67
2023-03-07T10:36:44.230Z,6.72
2023-03-07T10:37:56.983Z,6.76
2023-03-07T10:39:12.300Z,6.81
2023-03-07T10:40:32.015Z,6.78
2023-03-07T10:41:33.834Z,6.64
2023-03-07T10:42:36.840Z,6.62
2023-03-07T10:43:39.426Z,6.78
2023-03-07T10:44:41.915Z,6.91
2023-03-07T10:45:43.361Z,7.04
2023-03-07T10:46:55.238Z,7.14
2023-03-07T10:48:09.835Z,7.18
2023-03-07T10:49:23.879Z,7.18
2023-03-07T10:50:38.885Z,7.06
2023-03-07T10:52:03.717Z,7.05
2023-03-07T10:53:19.364Z,7.03
2023-03-07T10:54:24.069Z,7.04
2023-03-07T10:55:41.710Z,7.03
2023-03-07T10:57:05.431Z,7.02
2023-03-07T10:58:22.274Z,7.00
2023-03-07T10:59:26.836Z,6.79
2023-03-07T11:00:28.591Z,6.84
2023-03-07T11:01:32.055Z,6.84
2023-03-07T11:02:41.745Z,6.87
2023-03-07T11:04:00.704Z,6.90
2023-03-07T11:05:18.107Z,6.92
2023-03-07T11:06:36.092Z,6.99
2023-03-07T11:07:37.750Z,7.04
2023-03-07T11:08:45.143Z,7.11
2023-03-07T11:09:47.552Z,7.12
2023-03-07T11:10:49.198Z,7.16
2023-03-07T11:11:52.566Z,7.17
2023-03-07T11:12:55.854Z,7.29
2023-03-07T11:14:24.587Z,7.37
2023-03-07T11:15:27.638Z,7.43
2023-03-07T11:16:29.023Z,7.42
2023-03-07T11:17:44.469Z,7.42
2023-03-07T11:18:46.532Z,7.35
2023-03-07T11:19:52.007Z,7.37
2023-03-07T11:20:53.541Z,7.29
2023-03-07T11:21:56.114Z,7.19
2023-03-07T11:23:31.576Z,7.18
2023-03-07T11:24:39.805Z,7.21
2023-03-07T11:25:41.349Z,7.18
2023-03-07T11:26:43.217Z,7.14
2023-03-07T11:27:53.304Z,7.16
2023-03-07T11:29:08.809Z,7.05
2023-03-07T11:30:20.865Z,7.04
2023-03-07T11:31:41.148Z,7.07
2023-03-07T11:32:51.013Z,7.09
2023-03-07T11:34:22.465Z,7.13
2023-03-07T11:35:44.055Z,7.13
2023-03-07T11:36:51.995Z,7.15
2023-03-07T11:38:06.633Z,7.20
2023-03-07T11:39:21.803Z,7.14
2023-03-07T11:40:34.700Z,7.13
2023-03-07T11:41:38.658Z,7.13
2023-03-07T11:42:47.204Z,7.13
2023-03-07T11:43:51.436Z,7.05
2023-03-07T11:44:56.752Z,7.13
2023-03-07T11:46:09.914Z,7.16
2023-03-07T11:47:46.961Z,7.16
2023-03-07T11:49:19.603Z,7.09
2023-03-07T11:50:23.309Z,7.00
2023-03-07T11:51:59.252Z,7.00
2023-03-07T11:53:30.176Z,6.99
2023-03-07T11:55:05.339Z,7.03
2023-03-07T11:56:26.347Z,7.09
2023-03-07T11:57:46.437Z,7.02
2023-03-07T11:59:29.159Z,6.97
2023-03-07T12:00:36.619Z,7.04
2023-03-07T12:01:53.382Z,7.12
2023-03-07T12:03:16.297Z,7.12
2023-03-07T12:04:26.682Z,7.12
2023-03-07T12:05:56.182Z,6.95
2023-03-07T12:07:27.831Z,6.91
2023-03-07T12:08:38.939Z,6.80
2023-03-07T12:09:56.923Z,6.73
2023-03-07T12:11:20.687Z,6.80
2023-03-07T12:12:53.158Z,6.84
2023-03-07T12:14:15.901Z,6.77
2023-03-07T12:15:38.166Z,6.75
2023-03-07T12:17:04.724Z,6.78
2023-03-07T12:18:31.836Z,6.77
2023-03-07T12:19:33.247Z,6.68
2023-03-07T12:21:08.640Z,6.66
2023-03-07T12:22:30.664Z,6.54
2023-03-07T12:23:42.412Z,6.53
2023-03-07T12:24:55.091Z,6.52
2023-03-07T12:26:03.324Z,6.52
2023-03-07T12:27:17.236Z,6.52
2023-03-07T12:28:21.432Z,6.49
2023-03-07T12:29:56.775Z,6.52
2023-03-07T12:31:11.430Z,6.52
2023-03-07T12:32:22.239Z,6.55
2023-03-07T12:33:42.924Z,6.51
2023-03-07T12:34:54.049Z,6.53
2023-03-07T12:36:04.535Z,6.51
2023-03-07T12:37:20.775Z,6.51
2023-03-07T12:38:31.329Z,6.55
2023-03-07T12:39:45.039Z,6.57
2023-03-07T12:40:58.375Z,6.62
2023-03-07T12:42:35.220Z,6.49
2023-03-07T12:43:47.444Z,6.47
2023-03-07T12:44:58.323Z,6.50
2023-03-07T12:46:28.017Z,6.40
2023-03-07T12:47:46.882Z,6.35
2023-03-07T12:48:59.070Z,6.28
2023-03-07T12:50:10.649Z,6.27
2023-03-07T12:51:15.182Z,6.28
2023-03-07T12:52:29.766Z,6.30
2023-03-07T12:53:49.988Z,6.29
2023-03-07T12:54:59.528Z,6.23
2023-03-07T12:56:11.032Z,6.15
2023-03-07T12:57:20.905Z,6.14
2023-03-07T12:58:35.085Z,6.15
2023-03-07T12:59:42.420Z,6.14
2023-03-07T13:00:50.264Z,6.21
2023-03-07T13:02:03.549Z,6.18
2023-03-07T13:03:06.799Z,6.22
2023-03-07T13:04:24.419Z,6.27
2023-03-07T13:05:26.584Z,6.24
2023-03-07T13:06:28.612Z,6.15
2023-03-07T13:07:33.571Z,6.11
2023-03-07T13:08:35.166Z,6.14
2023-03-07T13:09:43.088Z,6.23
2023-03-07T13:10:45.885Z,6.27
2023-03-07T13:12:09.189Z,6.29
2023-03-07T13:13:47.852Z,6.09
2023-03-07T13:14:53.388Z,6.12
2023-03-07T13:16:04.234Z,6.09
2023-03-07T13:17:10.161Z,6.10
2023-03-07T13:18:28.238Z,6.02
2023-03-07T13:19:36.225Z,6.05
2023-03-07T13:20:40.738Z,6.10
2023-03-07T13:21:42.398Z,6.20
2023-03-07T13:22:44.231Z,6.28
2023-03-07T13:23:45.747Z,6.30
2023-03-07T13:24:48.657Z,6.32
2023-03-07T13:25:56.893Z,6.26
2023-03-07T13:26:59.742Z,6.25
2023-03-07T13:28:03.154Z,6.21
2023-03-07T13:29:04.670Z,6.30
2023-03-07T13:30:12.481Z,6.36
2023-03-07T13:31:16.874Z,6.38
2023-03-07T13:32:52.222Z,6.40
2023-03-07T13:33:54.175Z,6.46
2023-03-07T13:34:55.775Z,6.56
2023-03-07T13:35:59.764Z,6.64
2023-03-07T13:37:40.095Z,6.75
2023-03-07T13:38:44.718Z,6.80
2023-03-07T13:40:02.534Z,6.78
2023-03-07T13:41:05.729Z,6.83
2023-03-07T13:42:46.238Z,6.77
2023-03-07T13:43:47.581Z,6.74
2023-03-07T13:44:49.122Z,6.75
2023-03-07T13:45:57.450Z,6.83
2023-03-07T13:47:02.822Z,6.83
2023-03-07T13:48:05.935Z,6.84
2023-03-07T13:49:07.583Z,6.83
2023-03-07T13:50:33.844Z,6.88
2023-03-07T13:51:35.434Z,6.89
2023-03-07T13:52:39.157Z,6.74
2023-03-07T13:53:46.400Z,6.72
2023-03-07T13:54:49.990Z,6.73
2023-03-07T13:56:01.208Z,6.63
2023-03-07T13:57:04.071Z,6.72
2023-03-07T13:58:21.724Z,6.81
2023-03-07T13:59:28.301Z,6.80
2023-03-07T14:00:37.304Z,6.79
2023-03-07T14:01:46.640Z,6.86
2023-03-07T14:02:49.425Z,6.93
2023-03-07T14:04:07.979Z,6.96
2023-03-07T14:05:09.657Z,6.79
2023-03-07T14:06:17.050Z,6.83
2023-03-07T14:07:28.892Z,6.77
2023-03-07T14:08:34.516Z,6.81
2023-03-07T14:09:50.765Z,6.96
2023-03-07T14:10:53.873Z,7.09
2023-03-07T14:12:09.412Z,7.10
2023-03-07T14:13:29.526Z,7.05
2023-03-07T14:14:39.836Z,7.01
2023-03-07T14:16:19.006Z,6.95
2023-03-07T14:17:30.298Z,7.00
2023-03-07T14:18:50.929Z,6.91
2023-03-07T14:20:11.552Z,6.91
2023-03-07T14:21:38.574Z,7.03
2023-03-07T14:23:05.503Z,7.26
2023-03-07T14:24:31.478Z,7.39
2023-03-07T14:25:36.137Z,7.24
2023-03-07T14:26:50.099Z,7.18
2023-03-07T14:27:58.841Z,7.13
2023-03-07T14:29:15.281Z,7.21
2023-03-07T14:30:17.889Z,7.31
2023-03-07T14:31:25.358Z,7.46
2023-03-07T14:32:30.377Z,7.63
2023-03-07T14:33:36.904Z,7.94
2023-03-07T14:34:40.170Z,8.41